This is the latest recevied weather packets stored in our database for station/object OK1PHM-12. If no packets are shown the sender has not sent any weather packets the latest 10 day(s).
| Time | Temp. | Humidity | Pressure | Rain* | Wind** | Luminosity | Snow |
|---|---|---|---|---|---|---|---|
| 1777778605 | 7.22° C | 76% | 1019.1 hPa | - | - | - | - |
| 1777777704 | 7.22° C | 75% | 1019.1 hPa | - | - | - | - |
| 1777776804 | 7.78° C | 74% | 1019.1 hPa | - | - | - | - |
| 1777775903 | 7.22° C | 74% | 1019.3 hPa | - | - | - | - |
| 1777775002 | 7.78° C | 73% | 1019.1 hPa | - | - | - | - |
| 1777774101 | 8.33° C | 72% | 1019.2 hPa | - | - | - | - |
| 1777773200 | 8.33° C | 71% | 1019.2 hPa | - | - | - | - |
| 1777772299 | 8.89° C | 69% | 1019.2 hPa | - | - | - | - |
| 1777771399 | 9.44° C | 67% | 1019.3 hPa | - | - | - | - |
| 1777770498 | 10.56° C | 61% | 1019.2 hPa | - | - | - | - |
| 1777769597 | 17.22° C | 41% | 1019.3 hPa | - | - | - | - |
| 1777768696 | 17.78° C | 39% | 1019.2 hPa | - | - | - | - |
| 1777767795 | 17.78° C | 39% | 1019.2 hPa | - | - | - | - |
| 1777766894 | 18.33° C | 37% | 1019.2 hPa | - | - | - | - |
| 1777765993 | 18.33° C | 36% | 1019.4 hPa | - | - | - | - |
| 1777765093 | 18.33° C | 36% | 1019.5 hPa | - | - | - | - |
| 1777764192 | 18.33° C | 36% | 1019.7 hPa | - | - | - | - |
| 1777763291 | 18.89° C | 36% | 1019.7 hPa | - | - | - | - |
| 1777762390 | 18.33° C | 36% | 1019.7 hPa | - | - | - | - |
| 1777761489 | 18.33° C | 37% | 1019.8 hPa | - | - | - | - |
| 1777760589 | 18.33° C | 38% | 1019.8 hPa | - | - | - | - |
| 1777759688 | 18.33° C | 39% | 1019.9 hPa | - | - | - | - |
| 1777758787 | 18.33° C | 40% | 1020 hPa | - | - | - | - |
| 1777757886 | 18.33° C | 41% | 1020 hPa | - | - | - | - |
| 1777756985 | 17.22° C | 44% | 1020 hPa | - | - | - | - |
* Rain since midnight (hover to see other rain measurements)
** Current wind speed in m/s (hover to see current wind gust speed)